Time;durP1;ratioP1;P1;durP2;ratioP2;P2;SDS_P1;SDS_P2;PMS_P1;PMS_P2;Temp;Humidity;BMP_temperature;BMP_pressure;BME280_temperature;BME280_humidity;BME280_pressure;Samples;Min_cycle;Max_cycle;Signal;HPM_P1;HPM_P2
2022/04/21 00:02:21;;;;;;;4.83;4.30;;;11.40;60.50;;;;;;5028946;28;20186;-71
2022/04/21 00:04:46;;;;;;;4.97;4.27;;;11.40;60.60;;;;;;5030679;28;20644;-71
2022/04/21 00:07:12;;;;;;;5.63;4.63;;;11.30;63.50;;;;;;5029500;28;20201;-71
2022/04/21 00:09:37;;;;;;;4.77;4.27;;;11.30;63.60;;;;;;5030668;28;20553;-71
2022/04/21 00:12:03;;;;;;;4.83;4.40;;;11.30;64.20;;;;;;5035869;28;20181;-72
2022/04/21 00:14:30;;;;;;;4.87;4.20;;;11.30;64.50;;;;;;5030087;28;20553;-71
2022/04/21 00:16:56;;;;;;;9.17;4.10;;;11.30;66.00;;;;;;5028767;28;20608;-71
2022/04/21 00:19:21;;;;;;;6.60;4.63;;;11.30;66.00;;;;;;5030718;28;20424;-71
2022/04/21 00:24:31;;;;;;;5.07;4.40;;;11.30;68.30;;;;;;5029539;28;20200;-71
2022/04/21 00:26:56;;;;;;;7.63;4.57;;;11.20;65.10;;;;;;5027904;28;20523;-71
2022/04/21 00:29:22;;;;;;;5.33;4.80;;;11.30;68.00;;;;;;5029877;28;20170;-71
2022/04/21 00:31:47;;;;;;;5.57;4.60;;;11.30;66.90;;;;;;5027966;28;20178;-71
2022/04/21 00:34:13;;;;;;;6.23;4.70;;;11.30;65.50;;;;;;5028777;28;20328;-71
2022/04/21 00:36:39;;;;;;;6.10;4.90;;;11.30;65.90;;;;;;5027413;28;20696;-71
2022/04/21 00:39:04;;;;;;;8.90;4.97;;;11.30;66.30;;;;;;5028530;28;20177;-72
2022/04/21 00:41:30;;;;;;;9.53;5.27;;;11.30;68.00;;;;;;5036250;28;20550;-72
2022/04/21 00:43:56;;;;;;;6.87;4.70;;;11.30;67.20;;;;;;5029844;28;20185;-72
2022/04/21 00:46:22;;;;;;;7.50;5.40;;;11.30;67.60;;;;;;5029060;28;20432;-71
2022/04/21 00:48:49;;;;;;;6.87;5.00;;;11.30;67.10;;;;;;5028286;28;20219;-72
2022/04/21 00:51:15;;;;;;;5.27;4.77;;;11.30;67.60;;;;;;5028262;28;20437;-71
2022/04/21 00:53:41;;;;;;;7.60;5.00;;;11.30;67.60;;;;;;5029300;28;20507;-71
2022/04/21 00:56:07;;;;;;;7.60;5.20;;;11.30;67.00;;;;;;5033370;28;20213;-71
2022/04/21 00:58:35;;;;;;;10.40;5.60;;;11.30;68.40;;;;;;5027749;28;20451;-72
2022/04/21 01:01:01;;;;;;;7.20;5.37;;;11.20;70.10;;;;;;5029543;28;20173;-71
2022/04/21 01:03:27;;;;;;;8.90;4.83;;;11.20;69.40;;;;;;5029779;28;20487;-71
2022/04/21 01:05:52;;;;;;;6.20;5.10;;;11.20;71.00;;;;;;5029364;28;20174;-72
2022/04/21 01:08:18;;;;;;;5.80;5.07;;;11.10;70.40;;;;;;5028814;28;20284;-72
2022/04/21 01:10:44;;;;;;;6.90;5.93;;;11.10;69.50;;;;;;5027327;28;20608;-72
2022/04/21 01:13:11;;;;;;;5.40;4.90;;;11.10;69.30;;;;;;5027981;28;20547;-71
2022/04/21 01:15:38;;;;;;;6.10;5.27;;;11.70;69.90;;;;;;5028561;28;20456;-71
2022/04/21 01:18:05;;;;;;;6.43;5.83;;;11.20;69.10;;;;;;5028279;28;20546;-71
2022/04/21 01:20:31;;;;;;;10.33;6.00;;;11.20;69.70;;;;;;5028384;28;20427;-72
2022/04/21 01:22:57;;;;;;;8.13;5.60;;;11.20;68.30;;;;;;5034571;28;20473;-72
2022/04/21 01:25:23;;;;;;;7.00;5.60;;;11.10;68.50;;;;;;5033258;28;20436;-71
2022/04/21 01:27:51;;;;;;;14.20;5.57;;;11.10;67.70;;;;;;5027603;28;20293;-71
2022/04/21 01:30:17;;;;;;;7.30;5.83;;;11.10;69.00;;;;;;5028596;28;20980;-71
2022/04/21 01:32:44;;;;;;;7.63;5.70;;;11.00;70.50;;;;;;5028115;28;20520;-71
2022/04/21 01:35:12;;;;;;;7.97;5.43;;;11.10;70.10;;;;;;5029107;28;20204;-71
2022/04/21 01:43:06;;;;;;;5.97;4.97;;;11.00;70.70;;;;;;5036251;28;20416;-72
2022/04/21 01:45:32;;;;;;;7.33;6.00;;;10.90;71.90;;;;;;5027231;28;20428;-71
2022/04/21 01:47:58;;;;;;;5.60;5.10;;;10.90;75.60;;;;;;5027870;28;20212;-71
2022/04/21 01:50:24;;;;;;;7.30;5.53;;;10.90;74.00;;;;;;5028712;28;20404;-71
2022/04/21 01:52:50;;;;;;;8.97;5.70;;;10.80;74.70;;;;;;5025444;28;20205;-71
2022/04/21 01:55:15;;;;;;;6.30;5.70;;;10.90;75.80;;;;;;5026890;28;20928;-71
2022/04/21 01:57:41;;;;;;;9.13;5.93;;;10.80;75.70;;;;;;5026095;28;20288;-71
2022/04/21 02:00:07;;;;;;;6.80;6.10;;;10.70;75.80;;;;;;5026418;28;20174;-71
2022/04/21 02:02:33;;;;;;;6.70;5.80;;;10.70;77.90;;;;;;5026852;28;20165;-72
2022/04/21 02:05:00;;;;;;;6.73;6.07;;;10.70;78.10;;;;;;5027653;28;20502;-71
2022/04/21 02:07:27;;;;;;;8.83;6.17;;;10.70;79.10;;;;;;5028341;28;20424;-72
2022/04/21 02:09:56;;;;;;;8.53;5.80;;;10.80;77.10;;;;;;5030066;28;20428;-72
2022/04/21 02:12:28;;;;;;;6.80;6.10;;;10.70;77.90;;;;;;5046862;28;21013;-71
2022/04/21 02:14:53;;;;;;;7.77;5.93;;;10.80;77.70;;;;;;5028805;28;20468;-71
2022/04/21 02:17:19;;;;;;;7.03;6.33;;;10.70;78.40;;;;;;5026866;28;20733;-71
2022/04/21 02:19:45;;;;;;;8.10;5.77;;;10.70;78.00;;;;;;5027545;28;20207;-72
2022/04/21 02:22:12;;;;;;;6.80;5.83;;;10.60;80.20;;;;;;5026212;28;20190;-71
2022/04/21 02:24:37;;;;;;;7.50;6.30;;;10.60;82.00;;;;;;5027565;28;20482;-72
2022/04/21 02:27:03;;;;;;;7.43;6.63;;;10.50;83.30;;;;;;5026130;28;20464;-72
2022/04/21 02:29:29;;;;;;;8.00;6.70;;;10.50;84.60;;;;;;5027646;28;20213;-72
2022/04/21 02:31:54;;;;;;;7.53;6.53;;;10.50;84.20;;;;;;5026747;28;20456;-71
2022/04/21 02:34:20;;;;;;;9.80;6.60;;;10.50;84.80;;;;;;5026920;28;20170;-71
2022/04/21 02:36:45;;;;;;;8.20;5.90;;;10.50;84.20;;;;;;5026479;28;20205;-72
2022/04/21 02:39:11;;;;;;;7.13;6.27;;;10.40;85.70;;;;;;5027916;28;20660;-72
2022/04/21 02:41:36;;;;;;;12.23;6.80;;;10.40;86.60;;;;;;5038642;28;20178;-72
2022/04/21 02:44:02;;;;;;;7.13;6.40;;;10.40;88.50;;;;;;5028012;28;20210;-71
2022/04/21 02:46:29;;;;;;;8.60;6.70;;;10.40;88.20;;;;;;5025881;28;20190;-71
2022/04/21 02:48:56;;;;;;;7.67;6.43;;;10.40;89.40;;;;;;5027172;28;20717;-72
2022/04/21 02:51:22;;;;;;;8.80;7.30;;;10.30;89.60;;;;;;5025858;28;20453;-72
2022/04/21 02:59:16;;;;;;;7.87;6.80;;;10.40;90.30;;;;;;5010329;28;20486;-71
2022/04/21 03:01:41;;;;;;;7.70;6.90;;;10.30;90.00;;;;;;5026182;28;20871;-72
2022/04/21 03:04:07;;;;;;;10.33;7.03;;;10.30;90.60;;;;;;5026670;28;20182;-72
2022/04/21 03:06:32;;;;;;;9.43;6.70;;;10.30;91.00;;;;;;5027093;28;20439;-72
2022/04/21 03:08:57;;;;;;;9.50;7.50;;;10.30;92.10;;;;;;5027509;28;20190;-72
2022/04/21 03:11:23;;;;;;;9.17;7.60;;;10.20;92.00;;;;;;5023123;28;20209;-71
2022/04/21 03:13:48;;;;;;;9.90;7.20;;;10.20;91.30;;;;;;5026234;28;20185;-72
2022/04/21 03:16:14;;;;;;;8.20;6.80;;;10.30;92.00;;;;;;5024972;28;20220;-72
2022/04/21 03:18:39;;;;;;;7.80;7.00;;;10.30;91.40;;;;;;5027255;28;20245;-72
2022/04/21 03:26:33;;;;;;;7.77;7.03;;;10.20;92.20;;;;;;5022496;28;20451;-71
2022/04/21 03:28:58;;;;;;;8.10;6.47;;;10.10;93.10;;;;;;5026507;28;20895;-72
2022/04/21 03:31:24;;;;;;;10.20;6.60;;;10.10;94.00;;;;;;5026283;28;20193;-72
2022/04/21 03:33:50;;;;;;;9.80;7.50;;;10.00;95.90;;;;;;5027055;28;20256;-72
2022/04/21 03:36:16;;;;;;;8.47;7.17;;;9.90;97.00;;;;;;5025089;28;20185;-72
2022/04/21 03:38:42;;;;;;;9.20;7.47;;;9.90;97.00;;;;;;5025860;28;20554;-72
2022/04/21 03:41:07;;;;;;;9.03;7.27;;;9.80;96.90;;;;;;5037594;28;20218;-72
2022/04/21 03:43:33;;;;;;;10.07;7.67;;;9.90;97.90;;;;;;5029366;28;20178;-72
2022/04/21 03:45:59;;;;;;;8.93;7.80;;;9.90;98.90;;;;;;5024532;28;20960;-72
2022/04/21 03:48:24;;;;;;;9.60;7.20;;;9.90;98.10;;;;;;5042352;28;20196;-72
2022/04/21 03:50:50;;;;;;;8.63;7.73;;;10.20;99.00;;;;;;5026207;28;20505;-72
2022/04/21 03:53:16;;;;;;;9.20;7.73;;;9.90;99.40;;;;;;5022259;28;20210;-71
2022/04/21 03:55:42;;;;;;;10.43;7.63;;;9.90;99.40;;;;;;5024923;28;20205;-72
2022/04/21 03:58:07;;;;;;;9.40;7.20;;;9.70;99.30;;;;;;5026958;28;20437;-72
2022/04/21 04:00:33;;;;;;;12.33;7.90;;;9.70;99.30;;;;;;5025498;28;20672;-71
2022/04/21 04:02:58;;;;;;;9.83;7.10;;;9.70;99.40;;;;;;5026292;28;20235;-72
2022/04/21 04:05:24;;;;;;;10.13;7.37;;;9.70;99.30;;;;;;5025540;28;20232;-72
2022/04/21 04:10:52;;;;;;;9.57;6.60;;;9.70;99.50;;;;;;5036885;28;20180;-72
2022/04/21 04:13:27;;;;;;;8.23;7.20;;;9.70;99.90;;;;;;5035702;28;21068;-71
2022/04/21 04:15:54;;;;;;;9.37;7.57;;;9.70;99.30;;;;;;5027499;28;20459;-72
2022/04/21 04:18:20;;;;;;;9.93;7.37;;;9.70;99.30;;;;;;5030318;28;20432;-71
2022/04/21 04:20:46;;;;;;;8.83;7.80;;;9.70;99.90;;;;;;5028551;28;20497;-72
2022/04/21 04:23:14;;;;;;;12.33;8.07;;;9.70;99.50;;;;;;5030186;28;20412;-72
2022/04/21 04:25:40;;;;;;;11.47;8.20;;;9.70;99.90;;;;;;5028274;28;20177;-71
2022/04/21 04:28:05;;;;;;;11.40;9.60;;;9.80;99.90;;;;;;5028231;28;20445;-71
2022/04/21 04:30:34;;;;;;;10.20;8.23;;;9.80;99.90;;;;;;5027138;28;20261;-72
2022/04/21 04:33:00;;;;;;;11.47;7.93;;;9.80;99.90;;;;;;5026477;28;20570;-72
2022/04/21 04:35:26;;;;;;;8.50;7.60;;;9.90;99.40;;;;;;5029674;28;20447;-71
2022/04/21 04:37:52;;;;;;;9.77;7.90;;;9.80;99.90;;;;;;5026852;28;20198;-72
2022/04/21 04:40:19;;;;;;;9.50;8.20;;;9.80;99.90;;;;;;5028416;28;20796;-71
2022/04/21 04:42:44;;;;;;;9.30;8.03;;;10.00;99.90;;;;;;5035981;28;20804;-72
2022/04/21 04:47:54;;;;;;;8.87;7.53;;;9.70;99.90;;;;;;5029439;28;20323;-72
2022/04/21 04:50:20;;;;;;;11.90;8.23;;;9.70;99.90;;;;;;5028272;28;20420;-71
2022/04/21 04:52:47;;;;;;;9.10;8.00;;;9.70;99.90;;;;;;5029559;28;20178;-72
2022/04/21 04:55:13;;;;;;;10.20;7.87;;;9.70;99.90;;;;;;5028589;28;20193;-72
2022/04/21 04:57:39;;;;;;;11.73;8.67;;;9.70;99.90;;;;;;5027394;28;20458;-71
2022/04/21 05:00:06;;;;;;;10.77;8.10;;;9.70;99.90;;;;;;5028905;28;20174;-72
2022/04/21 05:02:32;;;;;;;9.90;7.87;;;9.70;99.90;;;;;;5028081;28;20436;-71
2022/04/21 05:04:58;;;;;;;10.73;8.30;;;9.70;99.90;;;;;;5027899;28;20423;-71
2022/04/21 05:07:23;;;;;;;10.00;7.93;;;10.00;99.90;;;;;;5027896;28;20453;-72
2022/04/21 05:09:49;;;;;;;9.40;7.87;;;9.60;99.90;;;;;;5028525;28;20187;-72
2022/04/21 05:12:14;;;;;;;8.53;7.30;;;9.60;99.90;;;;;;5026418;28;20166;-72
2022/04/21 05:14:40;;;;;;;8.87;7.97;;;9.70;99.90;;;;;;5029237;28;20174;-72
2022/04/21 05:17:05;;;;;;;11.10;7.67;;;9.80;99.90;;;;;;5027842;28;20285;-71
2022/04/21 05:19:31;;;;;;;10.83;7.97;;;9.80;99.90;;;;;;5026682;28;20255;-71
2022/04/21 05:22:04;;;;;;;8.97;6.93;;;9.90;99.90;;;;;;5027856;28;20269;-72
2022/04/21 05:24:31;;;;;;;7.73;7.00;;;10.30;99.90;;;;;;5028201;28;20193;-72
2022/04/21 05:26:57;;;;;;;9.23;7.10;;;10.20;99.90;;;;;;5027116;28;20527;-71
2022/04/21 05:32:08;;;;;;;8.90;6.97;;;10.40;99.10;;;;;;5026592;28;20947;-71
2022/04/21 05:34:34;;;;;;;8.20;7.03;;;10.60;99.30;;;;;;5028848;28;20196;-72
2022/04/21 05:37:01;;;;;;;9.20;7.10;;;10.80;99.30;;;;;;5021445;28;20846;-71
2022/04/21 05:39:28;;;;;;;9.23;6.70;;;10.90;97.80;;;;;;5025777;28;20518;-72
2022/04/21 05:41:54;;;;;;;8.80;7.10;;;11.00;96.60;;;;;;5034856;28;20417;-72
2022/04/21 05:44:21;;;;;;;8.00;7.20;;;11.10;96.10;;;;;;5033771;28;20886;-71
2022/04/21 05:46:47;;;;;;;9.67;6.97;;;11.20;94.40;;;;;;5026074;28;20452;-72
2022/04/21 05:49:13;;;;;;;10.23;8.43;;;11.30;93.40;;;;;;5027544;28;20420;-71
2022/04/21 05:51:38;;;;;;;10.73;7.93;;;11.40;93.10;;;;;;5025985;28;20957;-71
2022/04/21 05:54:05;;;;;;;8.90;6.77;;;11.50;93.90;;;;;;5023156;28;20186;-73
2022/04/21 05:56:32;;;;;;;10.63;7.30;;;11.60;91.90;;;;;;5026633;28;20293;-71
2022/04/21 05:58:58;;;;;;;8.43;7.30;;;11.60;92.20;;;;;;5025018;28;20984;-71
2022/04/21 06:01:24;;;;;;;9.37;7.60;;;11.70;91.50;;;;;;5022711;28;20820;-72
2022/04/21 06:03:50;;;;;;;8.97;7.60;;;11.90;92.00;;;;;;5028219;28;20748;-71
2022/04/21 06:06:15;;;;;;;9.07;7.10;;;12.00;89.80;;;;;;5026182;28;20182;-71
2022/04/21 06:08:41;;;;;;;9.33;8.33;;;12.10;90.70;;;;;;5043325;28;20708;-71
2022/04/21 06:11:07;;;;;;;10.10;8.50;;;12.20;81.70;;;;;;5030373;28;20178;-71
2022/04/21 06:13:32;;;;;;;7.83;7.03;;;12.20;82.20;;;;;;5035584;28;20185;-71
2022/04/21 06:15:59;;;;;;;9.13;7.70;;;12.30;86.40;;;;;;5025875;28;20237;-71
2022/04/21 06:18:25;;;;;;;9.30;7.93;;;12.50;80.00;;;;;;5027492;28;20201;-71
2022/04/21 06:20:52;;;;;;;11.93;7.40;;;12.80;77.10;;;;;;5024982;28;20828;-72
2022/04/21 06:23:18;;;;;;;10.23;7.27;;;13.00;76.50;;;;;;5028101;28;20397;-71
2022/04/21 06:25:44;;;;;;;10.73;6.90;;;13.10;74.60;;;;;;5025315;28;20798;-71
2022/04/21 06:28:11;;;;;;;7.40;6.70;;;13.10;71.70;;;;;;5027505;28;20537;-74
2022/04/21 06:30:36;;;;;;;8.07;6.50;;;13.30;67.90;;;;;;5024033;28;20452;-73
2022/04/21 06:33:02;;;;;;;7.27;6.47;;;13.50;71.70;;;;;;5021108;28;20807;-73
2022/04/21 06:35:29;;;;;;;8.17;6.90;;;13.70;67.60;;;;;;5022423;28;20675;-74
2022/04/21 06:37:55;;;;;;;7.47;6.40;;;13.80;60.20;;;;;;5026284;28;20563;-74
2022/04/21 06:40:21;;;;;;;8.60;6.30;;;13.80;60.00;;;;;;5025556;28;20436;-73
2022/04/21 06:42:47;;;;;;;6.30;5.70;;;14.00;60.60;;;;;;5034400;28;20961;-74
2022/04/21 06:48:03;;;;;;;6.90;6.20;;;14.40;53.80;;;;;;5026182;28;20584;-73
2022/04/21 06:50:33;;;;;;;6.60;6.00;;;14.60;54.40;;;;;;5027763;28;20523;-72
2022/04/21 06:53:04;;;;;;;6.53;5.83;;;14.50;51.70;;;;;;5026510;28;20451;-72
2022/04/21 06:55:30;;;;;;;6.40;5.80;;;15.00;49.40;;;;;;5024600;28;20985;-71
2022/04/21 06:57:55;;;;;;;5.97;5.37;;;14.90;48.90;;;;;;5034560;28;20432;-71
2022/04/21 07:00:23;;;;;;;6.03;5.43;;;15.10;49.80;;;;;;5024173;28;20178;-72
2022/04/21 07:02:51;;;;;;;8.20;5.20;;;15.30;46.20;;;;;;5023179;28;20257;-72
2022/04/21 07:05:17;;;;;;;6.87;4.97;;;15.40;43.50;;;;;;5027334;28;20437;-73
2022/04/21 07:07:43;;;;;;;6.50;5.37;;;15.40;42.60;;;;;;5032599;28;20457;-73
2022/04/21 07:10:10;;;;;;;6.47;5.00;;;15.50;43.60;;;;;;5028348;28;20805;-73
2022/04/21 07:12:36;;;;;;;5.83;5.23;;;15.70;42.70;;;;;;5024082;28;20979;-72
2022/04/21 07:15:04;;;;;;;5.67;5.00;;;15.90;43.00;;;;;;5029079;28;20460;-72
2022/04/21 07:17:30;;;;;;;6.47;5.03;;;16.10;43.10;;;;;;5024053;28;20201;-74
2022/04/21 07:19:56;;;;;;;5.20;4.70;;;16.10;43.10;;;;;;5025657;28;20429;-73
2022/04/21 07:22:25;;;;;;;8.30;5.93;;;16.20;43.10;;;;;;5026833;28;20177;-72
2022/04/21 07:24:54;;;;;;;6.63;5.87;;;16.40;43.30;;;;;;5025310;28;20801;-72
2022/04/21 07:27:20;;;;;;;7.67;5.97;;;16.40;43.40;;;;;;5026942;28;20421;-72
2022/04/21 07:29:46;;;;;;;7.60;5.27;;;16.60;43.50;;;;;;5027731;28;20431;-72
2022/04/21 07:32:11;;;;;;;8.40;6.23;;;16.80;43.70;;;;;;5027678;28;20898;-72
2022/04/21 07:34:37;;;;;;;6.80;5.87;;;16.70;43.70;;;;;;5028170;28;20166;-72
2022/04/21 07:37:04;;;;;;;7.73;6.37;;;16.80;43.70;;;;;;5027757;28;20227;-72
2022/04/21 07:39:29;;;;;;;6.40;5.80;;;16.80;43.70;;;;;;5027944;28;20232;-73
2022/04/21 07:41:57;;;;;;;7.03;5.93;;;16.80;43.70;;;;;;5038806;28;20415;-72
2022/04/21 07:44:23;;;;;;;8.10;6.77;;;17.00;43.90;;;;;;5051188;28;20220;-73
2022/04/21 07:46:48;;;;;;;8.67;6.60;;;17.10;44.00;;;;;;5051686;28;20431;-72
2022/04/21 07:53:12;;;;;;;7.50;6.60;;;17.00;43.80;;;;;;5038963;28;20536;-73
2022/04/21 07:54:43;;;;;;;8.97;7.10;;;17.00;43.80;;;;;;5030654;28;20420;-73
2022/04/21 07:57:10;;;;;;;9.73;7.40;;;16.80;43.70;;;;;;5030343;28;20452;-72
2022/04/21 07:59:36;;;;;;;8.40;7.00;;;16.50;43.50;;;;;;5031294;28;20303;-72
2022/04/21 08:02:03;;;;;;;8.03;7.23;;;16.40;43.30;;;;;;5030856;28;20535;-72
2022/04/21 08:04:29;;;;;;;9.53;7.13;;;16.40;43.30;;;;;;5031692;28;20185;-72
2022/04/21 08:06:57;;;;;;;8.77;7.87;;;16.40;43.30;;;;;;5033176;28;20733;-72
2022/04/21 08:09:22;;;;;;;7.63;6.83;;;16.40;43.30;;;;;;5041868;28;20430;-73
2022/04/21 08:11:48;;;;;;;8.27;7.00;;;16.40;43.30;;;;;;5049644;28;20894;-72
2022/04/21 08:14:14;;;;;;;9.43;7.27;;;16.70;43.60;;;;;;5049027;28;20181;-72
2022/04/21 08:16:41;;;;;;;8.20;6.60;;;16.90;43.70;;;;;;5050593;28;20492;-73
2022/04/21 08:19:06;;;;;;;7.53;6.73;;;17.30;44.10;;;;;;5051072;28;20491;-72
2022/04/21 08:21:32;;;;;;;10.23;7.20;;;17.40;46.80;;;;;;5048672;28;20565;-72
2022/04/21 08:32:33;;;;;;;8.93;6.90;;;17.90;44.60;;;;;;5051044;28;20173;-73
2022/04/21 08:34:55;;;;;;;10.70;7.67;;;19.20;34.00;;;;;;5050545;28;20417;-72
2022/04/21 08:37:21;;;;;;;8.63;7.13;;;20.60;28.80;;;;;;5038662;28;20428;-73
2022/04/21 08:39:47;;;;;;;8.07;7.27;;;21.30;23.40;;;;;;5028959;28;20598;-73
2022/04/21 08:42:14;;;;;;;8.77;7.50;;;21.60;22.80;;;;;;5028029;28;20848;-72
2022/04/21 08:44:41;;;;;;;12.67;7.50;;;21.60;23.60;;;;;;5030257;28;20416;-73
2022/04/21 08:47:10;;;;;;;8.93;7.27;;;21.30;21.90;;;;;;5030520;28;20439;-73
2022/04/21 08:49:38;;;;;;;9.47;6.70;;;21.40;21.00;;;;;;5030785;28;20782;-72
2022/04/21 08:52:05;;;;;;;6.50;5.67;;;21.70;18.70;;;;;;5030371;28;20839;-73
2022/04/21 08:54:31;;;;;;;13.30;6.33;;;22.40;17.10;;;;;;5030280;28;20463;-73
2022/04/21 08:56:57;;;;;;;5.43;4.70;;;23.30;14.30;;;;;;5029067;28;20483;-73
2022/04/21 08:59:23;;;;;;;5.93;4.80;;;25.00;9.70;;;;;;5027912;28;20760;-73
2022/04/21 09:01:49;;;;;;;5.77;4.63;;;26.40;5.00;;;;;;5028470;28;20168;-73
2022/04/21 09:04:15;;;;;;;6.00;4.57;;;27.70;1.00;;;;;;5030600;28;20170;-72
2022/04/21 09:06:40;;;;;;;4.43;3.90;;;28.80;1.00;;;;;;5029215;28;20201;-73
2022/04/21 09:09:19;;;;;;;5.07;4.18;;;29.90;1.00;;;;;;5039766;28;20165;-74
2022/04/21 09:11:45;;;;;;;4.70;4.10;;;30.80;1.00;;;;;;5027277;28;20173;-74
2022/04/21 09:14:16;;;;;;;5.22;4.18;;;31.20;1.00;;;;;;5029579;28;20231;-71
2022/04/21 09:16:42;;;;;;;7.25;3.97;;;31.20;1.00;;;;;;5029794;28;20212;-71
2022/04/21 09:19:07;;;;;;;3.70;3.30;;;31.80;1.00;;;;;;5029184;28;20174;-70
2022/04/21 09:21:37;;;;;;;4.80;4.00;;;31.20;1.00;;;;;;5028745;28;20200;-71
2022/04/21 09:24:23;;;;;;;4.65;3.60;;;31.90;1.00;;;;;;5029205;28;20227;-72
2022/04/21 09:26:49;;;;;;;4.30;3.88;;;32.10;1.00;;;;;;5027466;28;20534;-71
2022/04/21 09:29:28;;;;;;;4.32;3.63;;;32.20;1.00;;;;;;5026790;28;20178;-71
2022/04/21 09:31:58;;;;;;;4.75;3.50;;;32.40;1.00;;;;;;5028926;28;20630;-71
2022/04/21 09:34:25;;;;;;;5.22;4.15;;;32.90;1.00;;;;;;5029166;28;20654;-72
2022/04/21 09:36:53;;;;;;;5.28;4.78;;;32.50;1.00;;;;;;5031279;28;20229;-72
2022/04/21 09:39:18;;;;;;;5.60;5.05;;;30.80;1.00;;;;;;5040948;28;20207;-71
2022/04/21 09:41:44;;;;;;;7.78;5.45;;;28.40;1.00;;;;;;5048229;28;20192;-71
2022/04/21 09:46:58;;;;;;;5.83;4.90;;;25.30;1.00;;;;;;5049003;28;20310;-73
2022/04/21 09:49:41;;;;;;;6.90;5.40;;;24.50;1.00;;;;;;5048806;28;20573;-73
2022/04/21 09:52:07;;;;;;;5.90;5.30;;;24.10;1.00;;;;;;5035153;28;20177;-73
2022/04/21 09:54:34;;;;;;;8.43;5.77;;;23.50;1.80;;;;;;5028303;28;20182;-73
2022/04/21 09:57:00;;;;;;;9.50;6.00;;;23.10;4.60;;;;;;5027974;28;20611;-72
2022/04/21 09:59:26;;;;;;;8.40;5.60;;;22.40;6.30;;;;;;5029190;28;20415;-73
2022/04/21 10:01:52;;;;;;;6.43;5.73;;;22.40;6.90;;;;;;5028798;28;20518;-73
2022/04/21 10:04:18;;;;;;;7.10;6.40;;;22.70;6.60;;;;;;5027212;28;20220;-73
2022/04/21 10:06:45;;;;;;;8.20;5.40;;;22.80;6.50;;;;;;5029535;28;20188;-73
2022/04/21 10:09:11;;;;;;;7.80;6.10;;;23.00;4.80;;;;;;5040600;28;20439;-73
2022/04/21 10:11:38;;;;;;;8.13;5.40;;;23.50;3.50;;;;;;5047902;28;20411;-72
2022/04/21 10:14:07;;;;;;;6.53;5.87;;;25.10;1.00;;;;;;5048636;28;20417;-73
2022/04/21 10:16:33;;;;;;;7.00;5.77;;;25.60;1.00;;;;;;5048355;28;20845;-73
2022/04/21 10:19:00;;;;;;;6.10;5.17;;;25.10;1.00;;;;;;5047648;28;20494;-72
2022/04/21 10:21:37;;;;;;;8.40;5.70;;;24.30;1.00;;;;;;5048185;28;20172;-73
2022/04/21 10:24:04;;;;;;;6.23;5.03;;;23.70;1.00;;;;;;5048452;28;20406;-73
2022/04/21 10:26:37;;;;;;;6.70;4.80;;;23.20;3.10;;;;;;5047460;28;20450;-73
2022/04/21 10:29:16;;;;;;;5.73;5.10;;;22.70;5.80;;;;;;5048403;28;20419;-73
2022/04/21 10:32:03;;;;;;;7.60;5.50;;;23.00;5.60;;;;;;5046503;28;20410;-73
2022/04/21 10:34:45;;;;;;;6.83;4.97;;;24.50;1.00;;;;;;5048448;28;20407;-73
2022/04/21 10:37:21;;;;;;;7.30;5.23;;;25.30;1.00;;;;;;5039038;28;20478;-73
2022/04/21 10:40:03;;;;;;;5.30;4.30;;;24.90;1.00;;;;;;5027816;28;20906;-73
2022/04/21 10:42:28;;;;;;;5.33;4.33;;;25.60;1.00;;;;;;5027297;28;20408;-73
2022/04/21 10:44:55;;;;;;;8.63;5.23;;;27.20;1.00;;;;;;5028057;28;20457;-73
2022/04/21 10:47:38;;;;;;;5.80;5.20;;;29.50;1.00;;;;;;5028417;28;20340;-74
2022/04/21 10:50:20;;;;;;;6.13;4.90;;;31.40;1.00;;;;;;5028419;28;20173;-74
2022/04/21 10:58:37;;;;;;;8.80;4.57;;;33.80;1.00;;;;;;5027914;28;20321;-71
2022/04/21 11:01:18;;;;;;;4.80;4.20;;;34.40;1.00;;;;;;5027840;28;20169;-73
2022/04/21 11:04:08;;;;;;;5.88;4.30;;;34.50;1.00;;;;;;5026184;28;20169;-75
2022/04/21 11:06:39;;;;;;;7.10;4.38;;;34.60;1.00;;;;;;5027416;28;20185;-74
2022/04/21 11:09:04;;;;;;;4.40;3.72;;;34.10;1.00;;;;;;5028999;28;20165;-73
2022/04/21 11:11:49;;;;;;;4.20;3.80;;;33.20;1.00;;;;;;5025614;28;20196;-73
2022/04/21 11:14:28;;;;;;;5.18;3.90;;;33.40;1.00;;;;;;5019271;28;20177;-73
2022/04/21 11:16:53;;;;;;;5.03;3.95;;;32.10;1.00;;;;;;5028996;28;20197;-73
2022/04/21 11:19:28;;;;;;;4.85;4.35;;;31.20;1.00;;;;;;5032149;28;20655;-73
2022/04/21 11:21:58;;;;;;;9.25;3.65;;;31.00;1.00;;;;;;5032177;28;20298;-74
2022/04/21 11:24:25;;;;;;;6.20;4.18;;;30.80;1.00;;;;;;5030251;28;20644;-73
2022/04/21 11:26:58;;;;;;;4.40;3.72;;;31.20;1.00;;;;;;5031495;28;20777;-74
2022/04/21 11:29:24;;;;;;;6.88;3.33;;;32.00;1.00;;;;;;5031514;28;20264;-73
2022/04/21 11:31:57;;;;;;;4.00;3.60;;;32.50;1.00;;;;;;5031758;28;20188;-74
2022/04/21 11:34:24;;;;;;;4.18;3.75;;;33.80;1.00;;;;;;5032266;28;20691;-74
2022/04/21 11:36:53;;;;;;;5.10;4.10;;;35.10;1.00;;;;;;5033585;28;20725;-73
2022/04/21 11:39:19;;;;;;;6.43;4.70;;;35.50;1.00;;;;;;5043397;28;20165;-74
2022/04/21 11:41:48;;;;;;;5.55;4.07;;;34.80;1.00;;;;;;5049243;28;20245;-73
2022/04/21 11:44:21;;;;;;;4.25;3.78;;;34.30;1.00;;;;;;5051287;28;20189;-73
2022/04/21 11:46:47;;;;;;;5.03;4.15;;;32.90;1.00;;;;;;5051928;28;20199;-73
2022/04/21 11:49:12;;;;;;;4.70;4.05;;;33.30;1.00;;;;;;5051732;28;20173;-73
2022/04/21 11:51:38;;;;;;;5.05;3.95;;;33.70;1.00;;;;;;5046114;28;20216;-73
2022/04/21 11:54:08;;;;;;;5.45;4.40;;;32.50;1.00;;;;;;5031321;28;20180;-73
2022/04/21 11:56:35;;;;;;;7.72;4.50;;;30.70;1.00;;;;;;5029556;28;20189;-72
2022/04/21 11:59:08;;;;;;;8.43;4.30;;;31.50;1.00;;;;;;5030888;28;20165;-73
2022/04/21 12:07:05;;;;;;;6.75;4.57;;;33.50;1.00;;;;;;5035762;28;20619;-73
2022/04/21 12:09:38;;;;;;;5.40;4.50;;;32.60;1.00;;;;;;5041148;28;20172;-73
2022/04/21 12:12:05;;;;;;;4.88;4.38;;;30.50;1.00;;;;;;5050182;28;20204;-73
2022/04/21 12:14:31;;;;;;;7.28;4.45;;;28.30;1.00;;;;;;5049291;28;20219;-73
2022/04/21 12:17:01;;;;;;;7.30;4.88;;;27.30;1.00;;;;;;5050608;28;20226;-73
2022/04/21 12:19:35;;;;;;;6.32;4.80;;;26.80;1.00;;;;;;5051191;28;20265;-73
2022/04/21 12:22:09;;;;;;;5.80;5.00;;;28.10;1.00;;;;;;5050669;28;20173;-73
2022/04/21 12:24:41;;;;;;;10.10;5.57;;;30.50;1.00;;;;;;5051084;28;20165;-73
2022/04/21 12:27:34;;;;;;;7.72;5.53;;;32.10;1.00;;;;;;5048394;28;20250;-74
2022/04/21 12:30:02;;;;;;;6.85;5.95;;;33.30;1.00;;;;;;5047792;28;20235;-73
2022/04/21 12:32:28;;;;;;;7.43;5.40;;;33.30;1.00;;;;;;5050749;28;20276;-73
2022/04/21 12:34:56;;;;;;;5.30;4.18;;;32.00;1.00;;;;;;5050743;28;20169;-73
2022/04/21 12:37:30;;;;;;;6.68;4.95;;;31.50;1.00;;;;;;5037645;28;20204;-74
2022/04/21 12:39:57;;;;;;;7.75;5.13;;;30.50;1.00;;;;;;5030101;28;20660;-73
2022/04/21 12:42:23;;;;;;;6.15;5.30;;;28.80;1.00;;;;;;5029322;28;20169;-73
2022/04/21 12:44:50;;;;;;;5.60;5.00;;;27.70;1.00;;;;;;5030054;28;20165;-73
2022/04/21 12:47:17;;;;;;;6.10;5.07;;;26.20;1.00;;;;;;5028309;28;20648;-73
2022/04/21 12:49:53;;;;;;;7.70;5.10;;;25.10;1.00;;;;;;5027692;28;20548;-72
2022/04/21 12:52:29;;;;;;;6.20;4.93;;;24.40;1.00;;;;;;5030286;28;20161;-72
2022/04/21 12:54:54;;;;;;;6.80;5.13;;;23.80;1.00;;;;;;5030709;28;20728;-73
2022/04/21 12:57:20;;;;;;;7.23;5.47;;;23.50;1.00;;;;;;5029514;28;20498;-72
2022/04/21 12:59:46;;;;;;;7.47;5.33;;;23.30;1.00;;;;;;5029966;28;20184;-73
2022/04/21 13:02:13;;;;;;;5.73;5.13;;;23.50;1.00;;;;;;5029634;28;20181;-72
2022/04/21 13:04:39;;;;;;;5.70;5.10;;;23.60;1.00;;;;;;5029590;28;20446;-73
2022/04/21 13:07:05;;;;;;;9.20;5.20;;;23.70;1.00;;;;;;5033784;28;20524;-72
2022/04/21 13:09:31;;;;;;;6.17;4.63;;;23.80;1.00;;;;;;5041503;28;20679;-72
2022/04/21 13:11:57;;;;;;;5.70;4.97;;;24.20;1.00;;;;;;5028235;28;20651;-73
2022/04/21 13:14:23;;;;;;;6.33;5.20;;;25.50;1.00;;;;;;5029586;28;20426;-73
2022/04/21 13:16:49;;;;;;;8.83;6.47;;;27.90;1.00;;;;;;5029939;28;20201;-73
2022/04/21 13:19:14;;;;;;;8.80;6.73;;;28.70;1.00;;;;;;5029831;28;20851;-73
2022/04/21 13:21:57;;;;;;;5.70;5.10;;;28.50;1.00;;;;;;5028627;28;20204;-73
2022/04/21 13:24:27;;;;;;;14.18;6.10;;;29.50;1.00;;;;;;5030168;28;20172;-73
2022/04/21 13:26:55;;;;;;;6.47;5.15;;;31.40;1.00;;;;;;5028575;28;20292;-74
2022/04/21 13:29:21;;;;;;;6.03;5.18;;;32.20;1.00;;;;;;5029487;28;20197;-73
2022/04/21 13:34:32;;;;;;;16.98;11.38;;;31.30;1.00;;;;;;5029611;28;20631;-73
2022/04/21 13:36:58;;;;;;;7.72;6.78;;;29.50;1.00;;;;;;5032587;28;20214;-73
2022/04/21 13:39:23;;;;;;;8.98;5.35;;;27.90;1.00;;;;;;5040416;28;20165;-73
2022/04/21 13:41:49;;;;;;;7.17;5.07;;;26.70;1.00;;;;;;5048354;28;20173;-74
2022/04/21 13:44:15;;;;;;;13.33;5.30;;;26.20;1.00;;;;;;5049392;28;20222;-73
2022/04/21 13:46:42;;;;;;;9.90;5.60;;;26.10;1.00;;;;;;5048801;28;20208;-73
2022/04/21 13:49:07;;;;;;;7.80;5.17;;;26.20;1.00;;;;;;5049626;28;20173;-73
2022/04/21 13:51:33;;;;;;;6.40;4.77;;;27.80;1.00;;;;;;5044361;28;20179;-73